CheckWX is a tool to help pilots better visualize weather data.  It is not intended as a substitute for an official pre-flight weather briefing.

05:21:18 UTC

KBIH TAF
Bishop Airport
Bishop, California, USA
KBIH 180211Z 1802/1824 28012KT P6SM VCTS BKN110CB BKN200 FM180400 35011KT P6SM BKN110 FM180700 34007KT P6SM SCT110

Jun-18@
02:00 UTC

Jun-18 @ 02:00 UTC

Jun-18@
04:00 UTC

Jun-18 @ 04:00 UTC

KBIH 180211Z 1802/1824 28012KT P6SM VCTS BKN110CB BKN200

Expired

Wind
  • 280° at 12 KTS
Conditions
Area Thunderstorm
Cloud Levels
  • Broken at 11,000' AGL
  • Broken at 20,000' AGL

Jun-18@
04:00 UTC

Jun-18 @ 04:00 UTC

Jun-18@
07:00 UTC

Jun-18 @ 07:00 UTC

FM180400 35011KT P6SM BKN110

From

From Standard forecast or significant change

Wind
  • 350° at 11 KTS
Cloud Levels
  • Broken at 11,000' AGL

Jun-18@
07:00 UTC

Jun-18 @ 07:00 UTC

Jun-19@
00:00 UTC

Jun-19 @ 00:00 UTC

FM180700 34007KT P6SM SCT110

From

From Standard forecast or significant change

Wind
  • 340° at 7 KTS
Cloud Levels
  • Scattered at 11,000' AGL